createdAt,value
2024-01-24T00:01:04.615Z,99451.25
2024-01-24T00:05:07.383Z,99439.88
2024-01-24T00:09:09.087Z,99426.56
2024-01-24T00:13:11.995Z,99415.72
2024-01-24T00:17:13.694Z,99410.69
2024-01-24T00:21:15.648Z,99394.47
2024-01-24T00:25:17.500Z,99386.94
2024-01-24T00:29:20.462Z,99375.97
2024-01-24T00:33:23.131Z,99369.97
2024-01-24T00:37:24.879Z,99366.44
2024-01-24T00:41:26.366Z,99357.50
2024-01-24T00:45:29.272Z,99332.09
2024-01-24T00:49:32.334Z,99327.13
2024-01-24T00:53:34.915Z,99302.03
2024-01-24T00:57:37.004Z,99271.78
2024-01-24T01:01:39.949Z,99282.81
2024-01-24T01:05:44.533Z,99268.00
2024-01-24T01:09:46.169Z,99260.47
2024-01-24T01:13:49.150Z,99261.88
2024-01-24T01:17:52.030Z,99240.16
2024-01-24T01:21:53.681Z,99229.31
2024-01-24T01:25:55.234Z,99227.19
2024-01-24T01:29:56.759Z,99225.53
2024-01-24T01:33:59.727Z,99197.34
2024-01-24T01:38:01.371Z,99199.94
2024-01-24T01:42:04.057Z,99186.59
2024-01-24T01:46:07.749Z,99166.63
2024-01-24T01:50:14.268Z,99179.38
2024-01-24T01:54:17.022Z,99159.31
2024-01-24T01:58:18.735Z,99150.66
2024-01-24T02:02:20.682Z,99129.94
2024-01-24T02:06:23.891Z,99111.88
2024-01-24T02:10:25.482Z,99123.03
2024-01-24T02:14:28.062Z,99104.78
2024-01-24T02:18:29.573Z,99096.47
2024-01-24T02:22:32.596Z,99085.00
2024-01-24T02:26:35.972Z,99068.41
2024-01-24T02:30:37.532Z,99053.44
2024-01-24T02:34:39.281Z,99043.34
2024-01-24T02:38:40.955Z,99078.97
2024-01-24T02:42:43.872Z,99012.78
2024-01-24T02:46:45.470Z,99013.59
2024-01-24T02:50:47.035Z,99023.16
2024-01-24T02:54:48.656Z,99019.66
2024-01-24T02:58:51.653Z,98982.84
2024-01-24T03:02:53.194Z,98990.41
2024-01-24T03:06:54.850Z,98970.53
2024-01-24T03:10:56.452Z,98959.56
2024-01-24T03:14:59.385Z,98962.50
2024-01-24T03:19:01.070Z,98931.00
2024-01-24T03:23:05.456Z,98946.88
2024-01-24T03:27:07.357Z,98921.41
2024-01-24T03:31:10.373Z,98937.66
2024-01-24T03:35:11.988Z,98899.88
2024-01-24T03:39:13.559Z,98903.59
2024-01-24T03:43:15.110Z,98913.13
2024-01-24T03:47:18.062Z,98928.97
2024-01-24T03:51:19.700Z,98921.09
2024-01-24T03:55:21.518Z,98903.66
2024-01-24T03:59:23.092Z,98944.97
2024-01-24T04:03:26.096Z,98899.69
2024-01-24T04:07:30.578Z,98884.13
2024-01-24T04:11:34.334Z,98889.69
2024-01-24T04:15:35.984Z,98849.91
2024-01-24T04:19:40.286Z,98839.91
2024-01-24T04:23:42.019Z,98843.63
2024-01-24T04:27:43.659Z,98826.59
2024-01-24T04:31:45.234Z,98839.31
2024-01-24T04:35:48.136Z,98851.66
2024-01-24T04:39:49.656Z,98846.75
2024-01-24T04:43:51.220Z,98876.31
2024-01-24T04:47:52.952Z,98844.44
2024-01-24T04:51:55.939Z,98843.44
2024-01-24T04:55:57.486Z,98821.56
2024-01-24T05:00:00.165Z,98822.69
2024-01-24T05:04:02.427Z,98825.09
2024-01-24T05:08:05.819Z,98825.94
2024-01-24T05:12:07.492Z,98797.28
2024-01-24T05:16:09.102Z,98784.84
2024-01-24T05:20:11.923Z,98799.94
2024-01-24T05:24:14.963Z,98798.75
2024-01-24T05:28:16.629Z,98802.66
2024-01-24T05:32:18.199Z,98799.22
2024-01-24T05:36:19.763Z,98803.97
2024-01-24T05:40:25.234Z,98822.16
2024-01-24T05:44:27.399Z,98774.38
2024-01-24T05:48:29.232Z,98796.91
2024-01-24T05:52:30.840Z,98783.63
2024-01-24T05:56:33.891Z,98788.06
2024-01-24T06:00:35.571Z,98784.25
2024-01-24T06:04:37.343Z,98778.63
2024-01-24T06:08:39.021Z,98771.72
2024-01-24T06:12:42.017Z,98760.78
2024-01-24T06:16:43.550Z,98784.53
2024-01-24T06:20:45.453Z,98775.06
2024-01-24T06:24:48.044Z,98777.03
2024-01-24T06:28:51.170Z,98777.72
2024-01-24T06:32:53.189Z,98758.28
2024-01-24T06:36:55.135Z,98755.28
2024-01-24T06:40:56.906Z,98741.16
2024-01-24T06:44:59.797Z,98725.84
2024-01-24T06:49:01.445Z,98705.00
2024-01-24T06:53:03.085Z,98755.50
2024-01-24T06:57:05.206Z,98724.34
2024-01-24T07:01:08.277Z,98716.25
2024-01-24T07:05:09.960Z,98706.88
2024-01-24T07:09:11.534Z,98744.69
2024-01-24T07:13:14.398Z,98752.22
2024-01-24T07:17:17.508Z,98728.69
2024-01-24T07:21:19.179Z,98710.06
2024-01-24T07:25:20.978Z,98712.44
2024-01-24T07:29:25.670Z,98727.81
2024-01-24T07:33:28.892Z,98739.91
2024-01-24T07:37:30.536Z,98689.91
2024-01-24T07:41:34.262Z,98724.94
2024-01-24T07:45:35.871Z,98703.97
2024-01-24T07:49:39.592Z,98705.94
2024-01-24T07:53:41.323Z,98733.88
2024-01-24T07:57:43.008Z,98724.09
2024-01-24T08:01:45.307Z,98720.06
2024-01-24T08:05:48.353Z,98722.59
2024-01-24T08:09:51.201Z,98723.16
2024-01-24T08:13:52.820Z,98716.84
2024-01-24T08:17:55.025Z,98743.91
2024-01-24T08:21:58.199Z,98731.38
2024-01-24T08:25:59.898Z,98751.41
2024-01-24T08:30:01.624Z,98769.88
2024-01-24T08:34:03.368Z,98771.59
2024-01-24T08:38:06.393Z,98778.22
2024-01-24T08:42:08.137Z,98760.06
2024-01-24T08:46:09.816Z,98796.34
2024-01-24T08:50:11.933Z,98785.50
2024-01-24T08:54:15.031Z,98811.34
2024-01-24T08:58:16.589Z,98791.44
2024-01-24T09:02:18.226Z,98802.81
2024-01-24T09:06:19.889Z,98820.13
2024-01-24T09:10:22.954Z,98810.34
2024-01-24T09:14:24.889Z,98806.75
2024-01-24T09:18:27.359Z,98793.66
2024-01-24T09:22:29.062Z,98787.75
2024-01-24T09:26:32.189Z,98773.31
2024-01-24T09:30:33.741Z,98806.91
2024-01-24T09:34:35.505Z,98786.38
2024-01-24T09:38:37.448Z,98795.66
2024-01-24T09:42:42.533Z,98779.34
2024-01-24T09:46:44.192Z,98779.41
2024-01-24T09:50:46.758Z,98797.59
2024-01-24T09:54:48.428Z,98792.22
2024-01-24T09:58:51.284Z,98807.13
2024-01-24T10:02:53.018Z,98808.81
2024-01-24T10:06:54.911Z,98803.59
2024-01-24T10:10:56.665Z,98797.31
2024-01-24T10:14:59.674Z,98800.31
2024-01-24T10:19:01.360Z,98828.06
2024-01-24T10:23:03.217Z,98823.66
2024-01-24T10:27:05.554Z,98835.19
2024-01-24T10:31:10.018Z,98849.47
2024-01-24T10:35:12.040Z,98868.72
2024-01-24T10:39:17.550Z,98872.03
2024-01-24T10:43:21.337Z,98866.84
2024-01-24T10:47:25.301Z,98874.59
2024-01-24T10:51:28.730Z,98880.19
2024-01-24T10:55:32.504Z,98902.22
2024-01-24T10:59:36.523Z,98888.56
2024-01-24T11:03:40.367Z,98890.81
2024-01-24T11:07:48.979Z,98910.88
2024-01-24T11:11:54.411Z,98909.50
2024-01-24T11:15:56.827Z,98920.81
2024-01-24T11:20:00.011Z,98913.72
2024-01-24T11:24:01.646Z,98919.00
2024-01-24T11:28:03.459Z,98944.44
2024-01-24T11:32:10.388Z,98934.66
2024-01-24T11:40:27.004Z,98944.88
2024-01-24T11:44:29.850Z,98962.22
2024-01-24T11:48:34.272Z,98923.41
2024-01-24T11:52:36.457Z,98932.81
2024-01-24T11:56:39.770Z,98920.81
2024-01-24T12:00:41.930Z,98937.75
2024-01-24T12:04:44.046Z,98935.31
2024-01-24T12:08:48.219Z,98940.16
2024-01-24T12:12:54.540Z,98946.84
2024-01-24T12:16:56.576Z,98957.78
2024-01-24T12:21:03.362Z,98952.72
2024-01-24T12:25:07.557Z,98967.94
2024-01-24T12:29:11.592Z,98964.63
2024-01-24T12:33:16.116Z,98961.91
2024-01-24T12:37:20.918Z,98994.59
2024-01-24T12:41:23.686Z,98976.50
2024-01-24T12:45:28.303Z,99002.19
2024-01-24T12:49:30.870Z,98975.88
2024-01-24T12:53:33.320Z,98975.72
2024-01-24T12:57:36.654Z,99003.00
2024-01-24T13:01:40.777Z,98988.31
2024-01-24T13:05:47.171Z,98974.97
2024-01-24T13:09:56.018Z,98989.81
2024-01-24T13:14:00.449Z,98993.50
2024-01-24T13:18:04.482Z,99015.28
2024-01-24T13:22:06.539Z,99002.16
2024-01-24T13:26:08.853Z,99002.75
2024-01-24T13:30:11.758Z,99041.16
2024-01-24T13:34:15.638Z,99036.75
2024-01-24T13:38:17.744Z,99026.72
2024-01-24T13:42:19.549Z,99059.84
2024-01-24T13:46:21.636Z,99065.31
2024-01-24T13:50:25.221Z,99080.50
2024-01-24T13:54:27.435Z,99091.81
2024-01-24T13:58:29.703Z,99128.63
2024-01-24T14:02:31.822Z,99082.66
2024-01-24T14:06:35.400Z,99104.16
2024-01-24T14:10:37.941Z,99096.72
2024-01-24T14:14:40.007Z,99089.09
2024-01-24T14:18:44.899Z,99102.25
2024-01-24T14:22:48.158Z,99109.22
2024-01-24T14:26:50.197Z,99125.03
2024-01-24T14:30:52.292Z,99134.38
2024-01-24T14:34:54.431Z,99134.31
2024-01-24T14:38:58.019Z,99142.59
2024-01-24T14:43:00.401Z,99147.19
2024-01-24T14:47:02.056Z,99143.09
2024-01-24T14:51:04.091Z,99145.44
2024-01-24T14:55:08.244Z,99152.28
2024-01-24T14:59:09.930Z,99153.88
2024-01-24T15:03:11.654Z,99170.09
2024-01-24T15:07:13.489Z,99155.03
2024-01-24T15:11:16.621Z,99159.31
2024-01-24T15:15:18.561Z,99157.84
2024-01-24T15:19:20.594Z,99187.22
2024-01-24T15:23:22.349Z,99166.06
2024-01-24T15:27:25.927Z,99173.56
2024-01-24T15:31:27.780Z,99163.31
2024-01-24T15:35:29.381Z,99166.63
2024-01-24T15:39:31.407Z,99174.41
2024-01-24T15:43:34.453Z,99181.75
2024-01-24T15:47:36.307Z,99193.50
2024-01-24T15:51:38.020Z,99205.00
2024-01-24T15:55:39.814Z,99185.06
2024-01-24T15:59:43.003Z,99211.81
2024-01-24T16:03:45.213Z,99200.91
2024-01-24T16:07:47.078Z,99220.50
2024-01-24T16:11:48.672Z,99224.97
2024-01-24T16:15:52.398Z,99218.66
2024-01-24T16:19:54.065Z,99211.34
2024-01-24T16:23:55.707Z,99241.84
2024-01-24T16:27:57.541Z,99258.66
2024-01-24T16:32:00.500Z,99271.13
2024-01-24T16:36:02.642Z,99259.81
2024-01-24T16:40:04.826Z,99271.25
2024-01-24T16:44:06.510Z,99273.84
2024-01-24T16:48:09.685Z,99278.38
2024-01-24T16:52:11.394Z,99296.41
2024-01-24T16:56:13.033Z,99297.38
2024-01-24T17:00:15.205Z,99287.03
2024-01-24T17:04:18.304Z,99289.28
2024-01-24T17:08:19.899Z,99286.56
2024-01-24T17:12:21.460Z,99305.94
2024-01-24T17:16:23.058Z,99297.16
2024-01-24T17:20:26.031Z,99318.41
2024-01-24T17:24:27.776Z,99320.06
2024-01-24T17:28:29.380Z,99327.31
2024-01-24T17:32:31.154Z,99311.41
2024-01-24T17:36:34.397Z,99324.94
2024-01-24T17:40:35.991Z,99342.19
2024-01-24T17:44:38.090Z,99334.59
2024-01-24T17:48:40.118Z,99330.31
2024-01-24T17:52:43.862Z,99349.69
2024-01-24T17:56:46.148Z,99351.81
2024-01-24T18:00:48.261Z,99338.03
2024-01-24T18:04:50.292Z,99357.06
2024-01-24T18:08:54.153Z,99383.09
2024-01-24T18:12:56.722Z,99373.47
2024-01-24T18:16:58.821Z,99391.03
2024-01-24T18:21:00.930Z,99394.16
2024-01-24T18:25:04.971Z,99399.75
2024-01-24T18:29:06.840Z,99403.22
2024-01-24T18:33:08.987Z,99404.44
2024-01-24T18:37:11.200Z,99383.97
2024-01-24T18:41:16.423Z,99396.84
2024-01-24T18:45:18.722Z,99397.00
2024-01-24T18:49:20.867Z,99390.00
2024-01-24T18:53:23.041Z,99396.03
2024-01-24T18:57:26.677Z,99405.28
2024-01-24T19:01:29.105Z,99411.00
2024-01-24T19:05:37.255Z,99416.53
2024-01-24T19:09:41.713Z,99428.66
2024-01-24T19:13:45.562Z,99429.69
2024-01-24T19:17:47.754Z,99431.06
2024-01-24T19:21:49.933Z,99442.16
2024-01-24T19:25:52.944Z,99444.16
2024-01-24T19:29:56.370Z,99437.06
2024-01-24T19:33:58.427Z,99442.06
2024-01-24T19:38:00.892Z,99434.34
2024-01-24T19:42:03.079Z,99445.47
2024-01-24T19:46:07.159Z,99416.19
2024-01-24T19:50:09.996Z,99429.69
2024-01-24T19:54:11.899Z,99433.47
2024-01-24T19:58:14.029Z,99430.59
2024-01-24T20:02:17.312Z,99438.44
2024-01-24T20:06:19.360Z,99430.41
2024-01-24T20:10:21.556Z,99452.88
2024-01-24T20:14:23.307Z,99467.31
2024-01-24T20:18:26.861Z,99470.97
2024-01-24T20:22:28.861Z,99469.84
2024-01-24T20:26:30.897Z,99476.47
2024-01-24T20:30:33.237Z,99469.31
2024-01-24T20:34:36.526Z,99492.53
2024-01-24T20:38:38.571Z,99498.25
2024-01-24T20:42:40.105Z,99508.84
2024-01-24T20:46:41.802Z,99485.16
2024-01-24T20:50:45.760Z,99504.19
2024-01-24T20:54:47.332Z,99507.38
2024-01-24T20:58:48.954Z,99529.81
2024-01-24T21:02:50.458Z,99491.56
2024-01-24T21:06:53.446Z,99497.16
2024-01-24T21:10:59.991Z,99483.16
2024-01-24T21:15:05.639Z,99485.84
2024-01-24T21:19:07.190Z,99469.09
2024-01-24T21:23:10.137Z,99464.88
2024-01-24T21:27:11.776Z,99465.22
2024-01-24T21:31:13.382Z,99462.44
2024-01-24T21:35:14.909Z,99481.69
2024-01-24T21:39:17.776Z,99473.03
2024-01-24T21:43:19.302Z,99462.09
2024-01-24T21:47:20.820Z,99470.78
2024-01-24T21:51:22.362Z,99468.19
2024-01-24T21:55:25.205Z,99474.47
2024-01-24T21:59:26.712Z,99483.38
2024-01-24T22:03:28.296Z,99466.88
2024-01-24T22:07:29.907Z,99467.91
2024-01-24T22:11:35.404Z,99490.75
2024-01-24T22:15:37.328Z,99473.22
2024-01-24T22:19:39.488Z,99478.41
2024-01-24T22:23:41.392Z,99487.78
2024-01-24T22:27:44.747Z,99479.81
2024-01-24T22:31:47.484Z,99482.44
2024-01-24T22:35:49.752Z,99492.41
2024-01-24T22:39:53.155Z,99499.19
2024-01-24T22:43:56.616Z,99489.97
2024-01-24T22:47:58.679Z,99508.38
2024-01-24T22:52:00.675Z,99514.81
2024-01-24T22:56:02.784Z,99508.69
2024-01-24T23:00:07.952Z,99528.44
2024-01-24T23:04:09.900Z,99529.03
2024-01-24T23:08:12.031Z,99530.09
2024-01-24T23:12:14.109Z,99525.06
2024-01-24T23:16:17.826Z,99526.91
2024-01-24T23:20:20.029Z,99525.84
2024-01-24T23:24:21.962Z,99533.94
2024-01-24T23:28:24.373Z,99529.41
2024-01-24T23:32:28.388Z,99537.41
2024-01-24T23:36:30.561Z,99528.84
2024-01-24T23:40:32.610Z,99535.81
2024-01-24T23:44:34.656Z,99531.44
2024-01-24T23:48:38.299Z,99528.84
2024-01-24T23:52:41.078Z,99544.78
2024-01-24T23:56:43.047Z,99542.19
